Time;durP1;ratioP1;P1;durP2;ratioP2;P2;SDS_P1;SDS_P2;PMS_P1;PMS_P2;Temp;Humidity;BMP_temperature;BMP_pressure;BME280_temperature;BME280_humidity;BME280_pressure;Samples;Min_cycle;Max_cycle;Signal;HPM_P1;HPM_P2
2021/03/02 00:02:05;;;;;;;29.50;13.77;;;;;;;21.18;17.48;99983.53;5023926;28;20034;-88
2021/03/02 00:04:32;;;;;;;36.33;13.32;;;;;;;21.26;17.23;99983.28;5030324;28;20025;-87
2021/03/02 00:06:58;;;;;;;31.75;12.45;;;;;;;21.10;17.33;99984.53;5022505;28;20057;-87
2021/03/02 00:09:25;;;;;;;30.52;12.32;;;;;;;21.13;17.43;99981.84;5021337;28;20053;-88
2021/03/02 00:11:52;;;;;;;37.50;16.95;;;;;;;20.86;17.23;99984.81;5018307;28;20119;-88
2021/03/02 00:14:19;;;;;;;34.67;15.10;;;;;;;20.74;17.85;99990.53;5014740;28;20038;-88
2021/03/02 00:16:55;;;;;;;32.30;14.32;;;;;;;20.96;17.07;99982.22;5025325;28;20390;-88
2021/03/02 00:19:33;;;;;;;41.88;18.23;;;;;;;21.13;16.77;99984.63;5015250;28;20505;-88
2021/03/02 00:22:58;;;;;;;46.17;20.10;;;;;;;21.05;16.84;99974.47;5021919;28;20045;-88
2021/03/02 00:25:29;;;;;;;82.03;31.35;;;;;;;21.31;16.53;99979.38;5003500;28;20072;-88
2021/03/02 00:27:57;;;;;;;45.67;20.02;;;;;;;21.27;16.68;99981.31;5025261;28;20386;-88
2021/03/02 00:30:23;;;;;;;55.85;23.33;;;;;;;21.12;16.84;99976.63;5018012;28;20026;-88
2021/03/02 00:32:51;;;;;;;50.83;21.02;;;;;;;21.11;16.68;99975.81;5013524;28;20037;-88
2021/03/02 00:35:18;;;;;;;45.13;18.48;;;;;;;20.95;16.94;99980.63;5018941;28;20036;-88
2021/03/02 00:37:47;;;;;;;46.67;18.40;;;;;;;21.01;17.08;99981.94;5014069;28;20128;-88
2021/03/02 00:40:15;;;;;;;43.13;18.45;;;;;;;21.11;16.48;99981.41;5020883;28;20131;-88
2021/03/02 00:42:41;;;;;;;35.40;16.58;;;;;;;21.20;16.49;99987.56;5026370;28;20401;-87
2021/03/02 00:45:08;;;;;;;43.17;18.20;;;;;;;21.19;16.27;99985.94;5015732;28;20030;-87
2021/03/02 00:47:35;;;;;;;42.10;17.92;;;;;;;21.08;16.52;99982.13;5030722;28;20555;-87
2021/03/02 00:50:02;;;;;;;43.22;18.42;;;;;;;21.01;16.35;99979.16;5024859;28;20413;-87
2021/03/02 00:52:28;;;;;;;48.85;19.15;;;;;;;21.13;16.65;99976.25;5018749;28;20438;-87
2021/03/02 00:54:54;;;;;;;39.83;16.80;;;;;;;21.26;16.10;99972.09;5015066;28;20048;-87
2021/03/02 00:57:20;;;;;;;39.60;17.55;;;;;;;21.35;16.01;99972.69;5025572;28;20049;-87
2021/03/02 00:59:46;;;;;;;59.83;22.65;;;;;;;21.10;16.00;99968.59;5015208;28;20025;-87
2021/03/02 01:02:12;;;;;;;55.10;23.50;;;;;;;20.97;17.06;99969.09;5020117;28;20444;-87
2021/03/02 01:04:38;;;;;;;42.65;19.95;;;;;;;20.84;16.72;99970.41;5023541;28;20037;-87
2021/03/02 01:07:05;;;;;;;41.65;16.77;;;;;;;20.91;16.22;99957.38;5014133;28;20041;-87
2021/03/02 01:09:32;;;;;;;32.88;14.27;;;;;;;21.13;16.06;99955.88;5019016;28;20439;-88
2021/03/02 01:11:58;;;;;;;33.88;14.48;;;;;;;21.23;15.99;99952.50;5017406;28;20398;-87
2021/03/02 01:14:25;;;;;;;33.60;15.13;;;;;;;21.28;16.44;99944.59;5022183;28;20041;-87
2021/03/02 01:16:51;;;;;;;44.33;19.52;;;;;;;21.05;16.64;99948.56;5023465;28;20037;-89
2021/03/02 01:19:17;;;;;;;37.88;15.70;;;;;;;20.98;17.01;99943.56;5022802;28;20398;-88
2021/03/02 01:21:43;;;;;;;33.50;15.77;;;;;;;21.03;16.67;99931.28;5045779;28;20030;-91
2021/03/02 01:24:11;;;;;;;41.33;16.20;;;;;;;21.07;16.44;99941.44;5014753;28;20041;-91
2021/03/02 01:26:38;;;;;;;48.55;18.63;;;;;;;21.20;16.19;99923.31;5014449;28;20034;-91
2021/03/02 01:29:04;;;;;;;39.08;16.17;;;;;;;21.29;16.27;99923.88;5015794;28;20529;-88
2021/03/02 01:31:30;;;;;;;42.72;17.35;;;;;;;21.35;16.19;99921.59;5022842;28;20116;-90
2021/03/02 01:33:56;;;;;;;44.15;19.48;;;;;;;21.35;16.01;99925.19;5013178;28;20401;-91
2021/03/02 01:36:22;;;;;;;47.13;18.67;;;;;;;21.31;15.70;99923.50;5027537;28;20030;-90
2021/03/02 01:38:48;;;;;;;44.65;19.60;;;;;;;21.23;15.80;99924.56;5015923;28;20437;-90
2021/03/02 01:41:15;;;;;;;47.85;18.35;;;;;;;21.23;15.78;99919.78;5021156;28;20490;-90
2021/03/02 01:43:41;;;;;;;49.75;19.45;;;;;;;21.31;16.08;99929.09;5024211;28;20030;-90
2021/03/02 01:46:08;;;;;;;48.17;19.92;;;;;;;21.07;16.19;99919.09;5014443;28;20425;-91
2021/03/02 01:48:38;;;;;;;46.53;18.92;;;;;;;20.79;16.35;99929.66;5023928;28;20025;-91
2021/03/02 01:51:06;;;;;;;42.05;16.15;;;;;;;20.96;16.06;99920.81;5013625;28;20489;-90
2021/03/02 01:53:33;;;;;;;42.40;15.98;;;;;;;21.01;15.75;99917.72;5021975;28;20482;-91
2021/03/02 01:56:00;;;;;;;44.88;17.98;;;;;;;20.91;15.64;99912.72;5013343;28;20494;-90
2021/03/02 01:58:27;;;;;;;42.60;17.45;;;;;;;21.01;15.63;99912.13;5014574;28;20084;-90
2021/03/02 02:01:00;;;;;;;44.72;17.40;;;;;;;21.00;15.80;99916.13;5021887;28;20073;-90
2021/03/02 02:03:55;;;;;;;45.38;18.67;;;;;;;20.85;15.82;99902.22;5017434;28;20034;-91
2021/03/02 02:06:51;;;;;;;40.50;18.02;;;;;;;20.84;16.18;99903.41;5021571;28;20084;-91
2021/03/02 02:09:42;;;;;;;38.08;17.90;;;;;;;20.85;15.97;99905.00;5019294;28;20038;-91
2021/03/02 02:12:29;;;;;;;34.42;14.15;;;;;;;21.11;15.74;99900.41;5017853;28;20516;-91
2021/03/02 02:14:59;;;;;;;26.35;13.23;;;;;;;21.29;15.81;99903.50;5013772;28;20474;-90
2021/03/02 02:17:49;;;;;;;39.95;16.90;;;;;;;20.91;15.92;99890.38;5021464;28;20521;-91
2021/03/02 02:20:28;;;;;;;37.03;15.93;;;;;;;21.05;15.79;99892.69;5022403;28;20034;-91
2021/03/02 02:23:07;;;;;;;34.58;15.00;;;;;;;21.09;15.89;99883.22;5022198;28;20030;-91
2021/03/02 02:25:48;;;;;;;38.35;16.08;;;;;;;21.05;15.92;99882.31;5018830;28;20057;-91
2021/03/02 02:28:17;;;;;;;33.30;15.00;;;;;;;20.89;15.75;99878.78;5018744;28;20105;-91
2021/03/02 02:30:47;;;;;;;32.38;15.68;;;;;;;20.74;15.72;99885.28;5028449;28;20025;-91
2021/03/02 02:33:15;;;;;;;33.17;15.07;;;;;;;20.35;16.09;99872.50;5027454;28;20486;-90
2021/03/02 02:35:44;;;;;;;50.58;20.73;;;;;;;20.00;16.39;99878.03;5030334;28;20029;-90
2021/03/02 02:38:14;;;;;;;33.72;13.95;;;;;;;19.91;16.59;99871.84;5022153;28;20034;-90
2021/03/02 02:40:42;;;;;;;43.95;17.35;;;;;;;20.02;16.79;99870.91;5024103;28;20509;-90
2021/03/02 02:43:09;;;;;;;48.83;19.83;;;;;;;20.09;16.38;99875.88;5021417;28;20552;-90
2021/03/02 02:45:36;;;;;;;37.08;17.33;;;;;;;20.26;16.32;99871.88;5022727;28;20037;-90
2021/03/02 02:48:03;;;;;;;34.70;15.82;;;;;;;20.25;16.22;99873.88;5024125;28;20037;-90
2021/03/02 02:50:29;;;;;;;34.35;14.65;;;;;;;20.37;15.97;99873.75;5018836;28;20033;-90
2021/03/02 02:52:58;;;;;;;33.25;16.55;;;;;;;20.59;15.78;99877.75;5019215;28;20108;-88
2021/03/02 02:55:33;;;;;;;35.78;15.05;;;;;;;20.70;15.41;99870.41;5023882;28;20030;-88
2021/03/02 02:58:01;;;;;;;41.88;17.40;;;;;;;20.70;15.30;99876.00;5031626;28;20132;-89
2021/03/02 03:00:28;;;;;;;43.13;18.13;;;;;;;20.23;15.83;99870.66;5018927;28;20034;-89
2021/03/02 03:02:55;;;;;;;32.40;14.90;;;;;;;19.79;16.27;99866.41;5025057;28;20034;-89
2021/03/02 03:05:26;;;;;;;36.70;15.65;;;;;;;19.89;16.70;99865.81;5015524;28;20117;-88
2021/03/02 03:08:14;;;;;;;40.22;17.70;;;;;;;19.87;16.76;99857.84;5016546;28;20048;-89
2021/03/02 03:10:45;;;;;;;40.85;17.20;;;;;;;20.08;16.55;99856.69;5022146;28;20103;-88
2021/03/02 03:13:16;;;;;;;47.55;19.85;;;;;;;19.98;16.24;99861.66;5018937;28;20036;-89
2021/03/02 03:15:45;;;;;;;;;;;;;;;19.40;17.29;99853.47;5018866;28;20033;-86
2021/03/02 03:18:15;;;;;;;53.50;19.98;;;;;;;19.40;16.84;99857.06;5024519;28;19918;-86
2021/03/02 03:20:42;;;;;;;45.42;17.85;;;;;;;19.66;16.64;99854.53;5024075;28;20068;-87
2021/03/02 03:23:08;;;;;;;43.38;17.90;;;;;;;19.94;16.77;99851.59;5023769;28;20053;-87
2021/03/02 03:25:34;;;;;;;41.70;17.55;;;;;;;19.66;16.70;99850.94;5016592;28;20033;-90
2021/03/02 03:28:03;;;;;;;43.80;19.00;;;;;;;19.32;16.97;99853.25;5018097;28;20060;-90
2021/03/02 03:30:33;;;;;;;37.33;15.98;;;;;;;19.11;17.46;99860.28;5023824;28;20037;-90
2021/03/02 03:33:03;;;;;;;36.25;16.08;;;;;;;18.96;18.46;99867.44;5024361;28;20030;-91
2021/03/02 03:35:29;;;;;;;36.78;15.43;;;;;;;19.18;18.08;99866.03;5016536;28;20065;-90
2021/03/02 03:37:56;;;;;;;30.58;14.30;;;;;;;19.61;17.43;99862.34;5023278;28;20029;-91
2021/03/02 03:40:22;;;;;;;33.42;14.23;;;;;;;19.87;17.11;99862.59;5016202;28;20034;-91
2021/03/02 03:42:48;;;;;;;33.13;14.75;;;;;;;19.93;17.02;99863.91;5018978;28;20025;-91
2021/03/02 03:45:15;;;;;;;35.63;15.18;;;;;;;19.79;17.05;99863.63;5016565;28;20038;-91
2021/03/02 03:47:41;;;;;;;28.92;12.43;;;;;;;20.07;17.11;99866.25;5021495;28;20030;-90
2021/03/02 03:50:09;;;;;;;27.65;12.13;;;;;;;19.86;17.09;99866.56;5023308;28;20112;-90
2021/03/02 03:52:39;;;;;;;34.78;14.55;;;;;;;19.93;16.90;99870.31;5028900;28;20021;-90
2021/03/02 03:55:07;;;;;;;;;;;;;;;20.02;17.19;99877.69;5018329;28;20077;-91
2021/03/02 03:57:34;;;;;;;30.63;12.80;;;;;;;20.28;16.27;99878.69;5032163;28;19917;-89
2021/03/02 04:00:02;;;;;;;28.20;12.52;;;;;;;20.27;16.11;99877.09;5025744;28;20029;-90
2021/03/02 04:02:29;;;;;;;31.42;13.38;;;;;;;20.17;16.13;99877.63;5023553;28;20029;-90
2021/03/02 04:04:56;;;;;;;31.08;14.27;;;;;;;20.08;16.52;99881.78;5030511;28;20018;-90
2021/03/02 04:07:23;;;;;;;37.72;15.88;;;;;;;20.07;16.46;99877.41;5016094;28;20077;-90
2021/03/02 04:09:50;;;;;;;32.83;14.93;;;;;;;20.16;16.45;99866.84;5024093;28;20113;-90
2021/03/02 04:12:16;;;;;;;32.55;14.90;;;;;;;20.39;16.29;99873.38;5026832;28;20036;-90
2021/03/02 04:14:43;;;;;;;33.58;14.10;;;;;;;20.54;15.94;99864.91;5017651;28;20083;-90
2021/03/02 04:17:12;;;;;;;40.67;15.52;;;;;;;20.58;15.61;99860.22;5022732;28;20038;-90
2021/03/02 04:19:38;;;;;;;33.53;14.23;;;;;;;20.53;16.02;99859.72;5026607;28;20026;-90
2021/03/02 04:22:04;;;;;;;36.20;15.18;;;;;;;20.53;16.16;99860.53;5026001;28;20025;-90
2021/03/02 04:24:30;;;;;;;31.92;14.55;;;;;;;20.53;16.04;99865.28;5028530;28;20036;-90
2021/03/02 04:26:57;;;;;;;31.98;14.50;;;;;;;20.60;16.49;99869.06;5017235;28;20052;-92
2021/03/02 04:29:23;;;;;;;32.25;13.68;;;;;;;20.27;16.77;99867.91;5014379;28;20359;-91
2021/03/02 04:31:49;;;;;;;30.45;12.35;;;;;;;20.16;16.54;99869.63;5016973;28;20409;-92
2021/03/02 04:34:16;;;;;;;29.27;14.05;;;;;;;19.75;16.83;99868.28;5023933;28;20401;-92
2021/03/02 04:36:42;;;;;;;38.42;15.88;;;;;;;19.63;17.03;99871.16;5029998;28;20114;-92
2021/03/02 04:39:09;;;;;;;27.88;12.65;;;;;;;19.90;16.95;99865.47;5025657;28;20064;-92
2021/03/02 04:41:35;;;;;;;31.98;12.90;;;;;;;20.10;16.45;99868.28;5024253;28;20041;-94
2021/03/02 04:44:02;;;;;;;31.10;12.65;;;;;;;20.12;16.61;99872.34;5025994;28;20109;-94
2021/03/02 04:46:28;;;;;;;25.58;12.05;;;;;;;20.14;16.74;99856.03;5017523;28;20038;-94
2021/03/02 04:48:54;;;;;;;38.75;15.20;;;;;;;20.26;16.29;99867.09;5014132;28;20390;-94
2021/03/02 04:51:20;;;;;;;32.88;14.27;;;;;;;20.21;16.50;99858.97;5018251;28;20041;-92
2021/03/02 04:53:46;;;;;;;30.15;12.85;;;;;;;20.28;16.56;99861.97;5019539;28;20040;-92
2021/03/02 04:56:12;;;;;;;36.10;14.05;;;;;;;20.40;16.05;99861.81;5025541;28;20030;-92
2021/03/02 04:58:38;;;;;;;43.42;16.00;;;;;;;20.47;15.58;99863.94;5020736;28;20053;-92
2021/03/02 05:01:04;;;;;;;40.95;16.55;;;;;;;20.29;15.90;99860.00;5015297;28;20478;-90
2021/03/02 05:03:30;;;;;;;46.90;18.80;;;;;;;20.28;16.15;99850.81;5018554;28;20528;-92
2021/03/02 05:05:56;;;;;;;58.17;23.13;;;;;;;20.35;15.63;99858.53;5022039;28;20065;-91
2021/03/02 05:08:22;;;;;;;55.92;22.23;;;;;;;20.30;15.63;99861.63;5020072;28;20061;-91
2021/03/02 05:10:48;;;;;;;47.53;19.63;;;;;;;19.87;15.99;99855.06;5017383;28;20394;-92
2021/03/02 05:13:15;;;;;;;37.95;15.38;;;;;;;19.87;15.62;99860.63;5021996;28;20041;-93
2021/03/02 05:15:41;;;;;;;42.55;16.10;;;;;;;20.04;15.38;99870.56;5020253;28;20567;-91
2021/03/02 05:18:07;;;;;;;40.63;15.70;;;;;;;20.15;15.52;99865.22;5022223;28;20486;-91
2021/03/02 05:20:33;;;;;;;38.60;14.50;;;;;;;20.22;15.73;99862.63;5015390;28;20030;-91
2021/03/02 05:22:59;;;;;;;39.22;16.63;;;;;;;20.24;15.17;99868.63;5014687;28;20498;-94
2021/03/02 05:25:25;;;;;;;36.40;15.55;;;;;;;20.11;15.29;99869.91;5014441;28;20036;-93
2021/03/02 05:27:51;;;;;;;43.70;17.42;;;;;;;19.81;15.49;99864.06;5022133;28;20045;-89
2021/03/02 05:30:18;;;;;;;42.45;16.63;;;;;;;19.79;15.50;99861.63;5015450;28;20026;-93
2021/03/02 05:32:44;;;;;;;35.53;15.05;;;;;;;19.66;15.68;99857.34;5013694;28;20034;-90
2021/03/02 05:35:11;;;;;;;51.70;21.98;;;;;;;19.68;15.97;99856.97;5012321;28;20068;-92
2021/03/02 05:37:37;;;;;;;46.80;19.23;;;;;;;19.64;15.71;99865.25;5019184;28;20104;-91
2021/03/02 05:40:03;;;;;;;42.85;17.02;;;;;;;19.88;15.95;99858.66;5031316;28;20057;-91
2021/03/02 05:42:32;;;;;;;46.67;20.30;;;;;;;19.61;16.00;99865.16;5024862;28;20061;-91
2021/03/02 05:44:58;;;;;;;41.03;17.20;;;;;;;19.18;16.41;99869.59;5021694;28;20521;-92
2021/03/02 05:47:25;;;;;;;39.85;16.08;;;;;;;19.19;16.75;99864.84;5026576;28;20041;-91
2021/03/02 05:49:51;;;;;;;36.38;15.10;;;;;;;19.55;16.44;99858.25;5020894;28;20612;-90
2021/03/02 05:52:18;;;;;;;31.90;13.63;;;;;;;20.04;16.13;99864.19;5014039;28;20402;-91
2021/03/02 05:54:44;;;;;;;38.35;16.92;;;;;;;20.08;16.04;99867.84;5023523;28;20117;-92
2021/03/02 05:57:11;;;;;;;40.42;17.25;;;;;;;20.08;15.89;99863.09;5033797;28;20030;-91
2021/03/02 05:59:37;;;;;;;42.47;15.63;;;;;;;20.36;15.75;99863.75;5030706;28;20057;-91
2021/03/02 06:02:03;;;;;;;39.33;15.93;;;;;;;20.63;15.78;99859.13;5028345;28;20036;-88
2021/03/02 06:04:29;;;;;;;40.05;15.68;;;;;;;20.99;15.43;99855.84;5021830;28;20564;-90
2021/03/02 06:07:01;;;;;;;44.53;18.70;;;;;;;21.10;15.33;99858.84;5023156;28;20037;-93
2021/03/02 06:09:29;;;;;;;49.70;22.58;;;;;;;20.94;15.75;99849.75;5022386;28;20069;-92
2021/03/02 06:12:06;;;;;;;44.08;19.25;;;;;;;20.95;15.51;99860.56;5025698;28;20037;-86
2021/03/02 06:14:35;;;;;;;43.88;18.60;;;;;;;21.08;15.82;99856.44;5021925;28;20041;-88
2021/03/02 06:17:03;;;;;;;46.78;19.55;;;;;;;21.18;15.93;99847.47;5018154;28;20034;-88
2021/03/02 06:19:37;;;;;;;44.95;18.85;;;;;;;21.35;15.93;99851.75;5022933;28;20033;-87
2021/03/02 06:22:03;;;;;;;44.33;18.48;;;;;;;21.73;15.71;99859.94;5018298;28;20414;-87
2021/03/02 06:24:42;;;;;;;43.72;19.15;;;;;;;21.39;16.15;99854.59;5025364;28;20037;-87
2021/03/02 06:27:14;;;;;;;40.08;18.52;;;;;;;21.14;16.50;99859.75;5019657;28;20036;-88
2021/03/02 06:29:41;;;;;;;37.58;15.95;;;;;;;21.37;16.49;99857.75;5021431;28;20037;-87
2021/03/02 06:32:08;;;;;;;36.97;16.02;;;;;;;21.62;16.29;99856.19;5019991;28;20034;-88
2021/03/02 06:34:34;;;;;;;37.72;16.23;;;;;;;21.79;16.28;99861.25;5018081;28;20041;-85
2021/03/02 06:37:03;;;;;;;36.45;15.43;;;;;;;21.95;16.19;99858.31;5023548;28;20033;-89
2021/03/02 06:39:30;;;;;;;37.95;17.27;;;;;;;22.28;15.93;99861.22;5029114;28;20045;-87
2021/03/02 06:42:18;;;;;;;44.95;20.45;;;;;;;22.24;16.31;99863.13;5028642;28;20421;-87
2021/03/02 06:44:49;;;;;;;47.65;22.40;;;;;;;22.37;16.28;99858.13;5022589;28;20053;-87
2021/03/02 06:47:29;;;;;;;52.08;23.23;;;;;;;22.00;16.64;99858.81;5017420;28;20052;-88
2021/03/02 06:49:56;;;;;;;48.40;22.77;;;;;;;22.32;16.57;99855.66;5033608;28;20038;-87
2021/03/02 06:52:22;;;;;;;44.75;20.70;;;;;;;22.52;16.30;99855.09;5031140;28;20033;-87
2021/03/02 06:54:50;;;;;;;40.70;18.60;;;;;;;22.72;16.23;99854.97;5028593;28;20029;-87
2021/03/02 06:57:24;;;;;;;44.88;19.15;;;;;;;22.48;16.64;99862.66;5020237;28;20401;-87
2021/03/02 06:59:55;;;;;;;46.88;22.48;;;;;;;22.39;16.66;99870.53;5021797;28;20034;-87
2021/03/02 07:02:38;;;;;;;43.47;18.98;;;;;;;22.27;17.17;99859.59;5025427;28;20045;-87
2021/03/02 07:05:10;;;;;;;46.15;20.20;;;;;;;21.83;17.82;99855.72;5025884;28;20099;-87
2021/03/02 07:07:37;;;;;;;55.33;24.98;;;;;;;20.50;19.24;99860.44;5025291;28;20420;-87
2021/03/02 07:10:05;;;;;;;38.45;18.15;;;;;;;20.39;19.60;99862.22;5023587;28;20210;-87
2021/03/02 07:12:33;;;;;;;50.17;21.02;;;;;;;20.08;19.97;99859.47;5029682;28;20032;-87
2021/03/02 07:15:02;;;;;;;52.03;22.08;;;;;;;20.10;19.90;99859.91;5025701;28;20110;-87
2021/03/02 07:17:29;;;;;;;46.50;22.38;;;;;;;20.16;20.06;99853.72;5021580;28;20108;-87
2021/03/02 07:19:57;;;;;;;46.47;21.02;;;;;;;20.50;19.48;99861.25;5031056;28;20030;-87
2021/03/02 07:22:25;;;;;;;37.90;17.85;;;;;;;20.11;20.42;99862.38;5026068;28;20030;-87
2021/03/02 07:24:54;;;;;;;50.72;22.20;;;;;;;20.88;19.41;99857.63;5023514;28;20026;-87
2021/03/02 07:27:24;;;;;;;41.78;19.33;;;;;;;19.92;20.11;99851.16;5028431;28;20394;-87
2021/03/02 07:29:50;;;;;;;43.83;20.20;;;;;;;20.32;20.09;99848.09;5026935;28;20482;-87
2021/03/02 07:32:18;;;;;;;56.78;24.77;;;;;;;20.16;20.39;99850.13;5021416;28;20044;-87
2021/03/02 07:34:46;;;;;;;54.03;22.98;;;;;;;20.17;20.15;99844.16;5022285;28;20032;-87
2021/03/02 07:37:22;;;;;;;44.05;19.13;;;;;;;19.41;20.98;99847.56;5027626;28;20034;-87
2021/03/02 07:40:06;;;;;;;47.70;20.40;;;;;;;19.92;20.97;99853.97;5027994;28;20077;-87
2021/03/02 07:42:32;;;;;;;46.03;20.90;;;;;;;20.33;20.52;99852.50;5028123;28;20137;-87
2021/03/02 07:45:04;;;;;;;55.75;24.65;;;;;;;19.92;21.06;99853.97;5028388;28;20033;-87
2021/03/02 07:47:41;;;;;;;40.95;18.45;;;;;;;19.50;21.36;99850.16;5026220;28;20037;-87
2021/03/02 07:50:17;;;;;;;37.50;16.77;;;;;;;18.73;22.38;99866.38;5031534;28;20036;-87
2021/03/02 07:52:44;;;;;;;50.05;21.30;;;;;;;18.80;22.42;99863.00;5017951;28;20055;-87
2021/03/02 07:55:19;;;;;;;51.35;21.77;;;;;;;19.02;22.83;99862.41;5030233;28;20034;-87
2021/03/02 07:57:45;;;;;;;49.33;22.35;;;;;;;19.81;21.79;99856.47;5027350;28;20493;-87
2021/03/02 08:00:14;;;;;;;42.78;21.08;;;;;;;19.75;22.01;99860.72;5033829;28;20040;-86
2021/03/02 08:02:40;;;;;;;39.70;18.13;;;;;;;19.42;22.38;99856.72;5023914;28;20477;-86
2021/03/02 08:05:31;;;;;;;45.72;20.45;;;;;;;19.25;22.82;99857.88;5025991;28;20079;-86
2021/03/02 08:08:23;;;;;;;40.17;16.77;;;;;;;19.27;22.48;99861.91;5017817;28;20041;-87
2021/03/02 08:10:58;;;;;;;44.50;20.67;;;;;;;20.05;22.09;99857.44;5023002;28;20140;-87
2021/03/02 08:13:38;;;;;;;50.63;22.42;;;;;;;19.62;22.30;99864.00;5025891;28;20544;-87
2021/03/02 08:16:09;;;;;;;42.95;18.65;;;;;;;18.69;23.32;99873.03;5024714;28;20116;-87
2021/03/02 08:18:37;;;;;;;48.60;21.27;;;;;;;19.56;23.01;99860.66;5029558;28;20032;-87
2021/03/02 08:21:17;;;;;;;47.67;21.67;;;;;;;18.63;23.85;99864.94;5026715;28;20405;-87
2021/03/02 08:23:59;;;;;;;53.03;23.10;;;;;;;18.63;23.92;99873.28;5022344;28;20034;-87
2021/03/02 08:26:32;;;;;;;45.92;21.33;;;;;;;18.26;24.06;99870.94;5025675;28;20037;-87
2021/03/02 08:29:16;;;;;;;42.97;17.63;;;;;;;18.08;25.25;99873.19;5029588;28;20080;-87
2021/03/02 08:31:49;;;;;;;50.08;22.08;;;;;;;18.00;25.07;99868.56;5021834;28;20033;-87
2021/03/02 08:34:18;;;;;;;42.72;19.30;;;;;;;18.89;24.39;99871.97;5029198;28;20444;-88
2021/03/02 08:36:52;;;;;;;49.40;20.25;;;;;;;19.59;23.98;99861.91;5021767;28;20152;-87
2021/03/02 08:39:20;;;;;;;50.88;24.67;;;;;;;19.02;23.74;99873.56;5022205;28;20041;-87
2021/03/02 08:41:49;;;;;;;48.80;22.25;;;;;;;18.65;24.86;99866.56;5026490;28;20021;-88
2021/03/02 08:44:25;;;;;;;53.67;22.75;;;;;;;17.83;25.90;99872.41;5019655;28;20454;-88
2021/03/02 08:46:56;;;;;;;58.17;25.42;;;;;;;18.06;25.85;99869.13;5027032;28;20087;-88
2021/03/02 08:49:23;;;;;;;;;;;;;;;18.75;24.58;99871.59;5029038;28;20033;-88
2021/03/02 08:52:01;;;;;;;52.45;21.83;;;;;;;18.50;25.11;99873.69;5031469;28;19956;-88
2021/03/02 08:54:28;;;;;;;46.55;20.33;;;;;;;17.75;25.65;99869.75;5030426;28;20084;-87
2021/03/02 08:57:02;;;;;;;52.67;23.42;;;;;;;17.73;25.92;99863.72;5026200;28;20035;-88
2021/03/02 08:59:29;;;;;;;51.97;24.58;;;;;;;18.53;26.12;99878.50;5022129;28;20119;-87
2021/03/02 09:01:56;;;;;;;48.78;22.13;;;;;;;18.70;25.28;99880.19;5025924;28;20037;-88
2021/03/02 09:04:25;;;;;;;48.92;21.63;;;;;;;18.67;26.00;99880.91;5027067;28;20034;-88
2021/03/02 09:06:52;;;;;;;55.33;23.98;;;;;;;19.46;24.88;99877.13;5023556;28;20033;-88
2021/03/02 09:09:23;;;;;;;51.67;23.25;;;;;;;20.09;23.84;99878.66;5026188;28;20033;-88
2021/03/02 09:11:54;;;;;;;44.22;20.40;;;;;;;20.68;23.16;99878.34;5021212;28;20038;-87
2021/03/02 09:14:25;;;;;;;39.30;18.67;;;;;;;20.51;23.38;99881.59;5027921;28;20029;-87
2021/03/02 09:16:58;;;;;;;50.67;24.20;;;;;;;20.60;23.19;99877.41;5027619;28;20030;-88
2021/03/02 09:19:27;;;;;;;38.53;17.20;;;;;;;19.77;23.92;99880.69;5028472;28;20489;-88
2021/03/02 09:21:58;;;;;;;48.63;21.50;;;;;;;20.64;23.33;99867.13;5031890;28;20436;-87
2021/03/02 09:24:28;;;;;;;51.58;21.92;;;;;;;19.95;24.00;99867.97;5033099;28;20075;-87
2021/03/02 09:27:05;;;;;;;38.75;18.35;;;;;;;19.85;24.68;99870.53;5027353;28;20482;-91
2021/03/02 09:29:39;;;;;;;49.30;22.20;;;;;;;20.53;23.70;99857.75;5028835;28;20034;-87
2021/03/02 09:32:07;;;;;;;50.15;21.75;;;;;;;20.78;23.56;99860.22;5020347;28;20784;-87
2021/03/02 09:34:38;;;;;;;54.35;22.65;;;;;;;21.30;23.17;99866.03;5019950;28;20559;-86
2021/03/02 09:37:18;;;;;;;41.83;17.88;;;;;;;21.88;22.96;99866.59;5026934;28;20512;-88
2021/03/02 09:39:54;;;;;;;61.15;25.98;;;;;;;19.43;25.01;99881.44;5024916;28;20040;-88
2021/03/02 09:42:24;;;;;;;49.65;22.52;;;;;;;19.64;24.69;99881.97;5030421;28;20034;-87
2021/03/02 09:44:55;;;;;;;47.40;21.27;;;;;;;19.82;25.25;99882.38;5028342;28;20033;-87
2021/03/02 09:47:27;;;;;;;;;;;;;;;19.48;25.53;99880.34;5027388;28;20059;-87
2021/03/02 09:50:16;;;;;;;38.67;17.90;;;;;;;19.32;25.15;99883.09;5030849;28;19924;-86
2021/03/02 09:52:47;;;;;;;53.33;24.67;;;;;;;19.56;25.66;99887.69;5025948;28;20029;-88
2021/03/02 09:55:19;;;;;;;58.58;26.77;;;;;;;18.53;26.86;99901.56;5025515;28;20136;-87
2021/03/02 09:58:01;;;;;;;56.80;25.88;;;;;;;19.19;25.63;99898.25;5025339;28;20041;-87
2021/03/02 10:00:32;;;;;;;49.60;23.83;;;;;;;18.79;26.65;99905.88;5034742;28;20030;-86
2021/03/02 10:02:59;;;;;;;;;;;;;;;19.40;26.17;99903.59;5028983;28;20036;-87
2021/03/02 10:05:36;;;;;;;46.30;19.55;;;;;;;19.75;25.94;99905.31;5026237;28;20337;-88
2021/03/02 10:08:20;;;;;;;51.90;21.52;;;;;;;21.62;23.21;99905.69;5023724;28;20026;-88
2021/03/02 10:10:47;;;;;;;50.00;22.95;;;;;;;21.90;22.76;99901.41;5025204;28;20049;-87
2021/03/02 10:13:40;;;;;;;43.65;19.38;;;;;;;23.48;21.08;99899.06;5026730;28;20065;-88
2021/03/02 10:16:24;;;;;;;45.60;20.05;;;;;;;24.36;20.51;99893.34;5028746;28;20037;-87
2021/03/02 10:19:14;;;;;;;42.55;19.15;;;;;;;23.24;21.26;99897.56;5033570;28;20048;-87
2021/03/02 10:21:50;;;;;;;40.90;18.93;;;;;;;22.09;22.06;99883.72;5025233;28;20128;-86
2021/03/02 10:24:36;;;;;;;46.88;21.90;;;;;;;21.30;22.62;99880.81;5025313;28;20053;-87
2021/03/02 10:27:19;;;;;;;39.60;19.35;;;;;;;20.67;24.07;99885.13;5031504;28;20071;-86
2021/03/02 10:29:47;;;;;;;47.60;21.73;;;;;;;20.46;24.43;99893.06;5026147;28;20029;-89
2021/03/02 10:32:14;;;;;;;48.33;21.08;;;;;;;19.56;25.75;99898.84;5022925;28;20080;-83
2021/03/02 10:34:41;;;;;;;47.78;22.35;;;;;;;19.61;25.88;99896.59;5029853;28;20536;-82
2021/03/02 10:37:11;;;;;;;55.33;27.25;;;;;;;19.57;25.60;99873.44;5019175;28;20072;-82
2021/03/02 10:39:40;;;;;;;49.67;24.35;;;;;;;20.06;25.56;99873.81;5023322;28;20398;-84
2021/03/02 10:42:12;;;;;;;57.08;26.17;;;;;;;19.95;25.68;99884.69;5041197;28;20041;-83
2021/03/02 10:44:38;;;;;;;48.42;22.08;;;;;;;21.70;23.22;99871.91;5021781;28;20061;-82
2021/03/02 10:47:06;;;;;;;44.80;22.02;;;;;;;21.26;23.83;99873.53;5027364;28;20075;-83
2021/03/02 10:49:32;;;;;;;53.05;24.10;;;;;;;21.24;23.96;99876.69;5030765;28;20033;-84
2021/03/02 10:51:58;;;;;;;44.17;22.23;;;;;;;21.35;23.67;99874.09;5024978;28;20025;-84
2021/03/02 10:54:24;;;;;;;41.10;20.27;;;;;;;20.77;24.33;99873.34;5024679;28;20110;-84
2021/03/02 10:56:50;;;;;;;57.45;28.17;;;;;;;20.03;25.34;99868.94;5025197;28;20038;-84
2021/03/02 10:59:16;;;;;;;47.17;22.73;;;;;;;20.77;24.74;99867.75;5020624;28;20042;-85
2021/03/02 11:01:43;;;;;;;44.28;21.20;;;;;;;20.65;25.19;99865.94;5024646;28;20042;-84
2021/03/02 11:04:09;;;;;;;48.00;23.25;;;;;;;21.27;24.01;99858.38;5024278;28;20042;-85
2021/03/02 11:06:35;;;;;;;55.40;24.17;;;;;;;20.65;24.62;99849.19;5024087;28;20117;-84
2021/03/02 11:09:03;;;;;;;48.95;22.27;;;;;;;22.56;22.67;99843.97;5020867;28;20030;-85
2021/03/02 11:11:29;;;;;;;46.03;20.58;;;;;;;22.56;22.27;99847.59;5020159;28;20037;-85
2021/03/02 11:13:56;;;;;;;39.75;19.65;;;;;;;23.36;21.80;99851.72;5028408;28;20060;-85
2021/03/02 11:16:22;;;;;;;43.63;19.80;;;;;;;23.07;21.53;99844.97;5027356;28;20041;-86
2021/03/02 11:18:48;;;;;;;37.03;19.42;;;;;;;24.49;20.29;99835.63;5029673;28;20030;-85
2021/03/02 11:21:15;;;;;;;40.20;19.23;;;;;;;24.40;20.54;99838.81;5026371;28;20370;-85
2021/03/02 11:23:42;;;;;;;39.35;19.35;;;;;;;24.35;20.58;99833.56;5029546;28;20025;-85
2021/03/02 11:26:08;;;;;;;43.70;20.60;;;;;;;24.56;20.35;99836.47;5027826;28;20100;-84
2021/03/02 11:28:36;;;;;;;45.75;22.48;;;;;;;23.26;21.01;99832.75;5023518;28;20071;-84
2021/03/02 11:31:02;;;;;;;42.67;19.73;;;;;;;24.56;20.12;99828.06;5030305;28;20033;-85
2021/03/02 11:33:28;;;;;;;42.28;19.77;;;;;;;23.59;21.46;99829.06;5035044;28;20076;-84